createdAt,value
2022-10-22T00:00:12.072Z,14.10
2022-10-22T00:02:39.131Z,14.00
2022-10-22T00:05:06.652Z,14.00
2022-10-22T00:07:33.642Z,14.00
2022-10-22T00:10:00.811Z,13.90
2022-10-22T00:12:28.000Z,13.90
2022-10-22T00:14:54.845Z,13.90
2022-10-22T00:17:22.639Z,13.90
2022-10-22T00:19:49.533Z,13.90
2022-10-22T00:22:16.965Z,13.90
2022-10-22T00:24:44.029Z,13.80
2022-10-22T00:27:12.844Z,13.80
2022-10-22T00:29:39.932Z,13.90
2022-10-22T00:32:08.281Z,13.90
2022-10-22T00:34:35.664Z,13.80
2022-10-22T00:37:02.515Z,13.80
2022-10-22T00:39:29.916Z,13.80
2022-10-22T00:41:58.404Z,13.80
2022-10-22T00:45:02.896Z,13.80
2022-10-22T00:47:44.429Z,13.80
2022-10-22T00:50:43.985Z,13.90
2022-10-22T00:53:20.077Z,13.80
2022-10-22T00:55:51.346Z,13.80
2022-10-22T00:58:21.236Z,13.80
2022-10-22T01:00:48.714Z,13.90
2022-10-22T01:03:15.661Z,13.90
2022-10-22T01:05:57.750Z,13.90
2022-10-22T01:08:39.467Z,13.90
2022-10-22T01:11:32.099Z,14.00
2022-10-22T01:14:14.929Z,14.00
2022-10-22T01:16:55.322Z,14.00
2022-10-22T01:19:59.812Z,13.90
2022-10-22T01:22:42.142Z,13.90
2022-10-22T01:25:50.819Z,13.90
2022-10-22T01:28:41.830Z,13.90
2022-10-22T01:31:10.999Z,13.90
2022-10-22T01:33:40.188Z,13.90
2022-10-22T01:36:08.357Z,13.80
2022-10-22T01:38:36.434Z,13.80
2022-10-22T01:41:03.770Z,13.80
2022-10-22T01:43:30.537Z,13.90
2022-10-22T01:46:03.179Z,13.80
2022-10-22T01:49:18.031Z,13.80
2022-10-22T01:52:05.046Z,13.70
2022-10-22T01:55:07.062Z,13.60
2022-10-22T01:58:17.137Z,13.60
2022-10-22T02:01:03.893Z,13.60
2022-10-22T02:04:00.468Z,13.50
2022-10-22T02:06:30.711Z,13.60
2022-10-22T02:08:59.320Z,13.50
2022-10-22T02:11:26.894Z,13.50
2022-10-22T02:13:58.842Z,13.50
2022-10-22T02:16:35.423Z,13.40
2022-10-22T02:19:10.639Z,13.40
2022-10-22T02:21:37.638Z,13.40
2022-10-22T02:24:05.553Z,13.40
2022-10-22T02:26:54.813Z,13.40
2022-10-22T02:29:53.482Z,13.50
2022-10-22T02:32:25.973Z,13.50
2022-10-22T02:34:54.287Z,13.50
2022-10-22T02:37:22.327Z,13.50
2022-10-22T02:39:49.694Z,13.50
2022-10-22T02:42:16.503Z,13.40
2022-10-22T02:44:43.965Z,13.30
2022-10-22T02:47:10.766Z,13.30
2022-10-22T02:49:37.600Z,13.30
2022-10-22T02:52:04.578Z,13.30
2022-10-22T02:54:31.507Z,13.30
2022-10-22T02:56:58.407Z,13.30
2022-10-22T02:59:25.368Z,13.30
2022-10-22T03:01:52.194Z,13.20
2022-10-22T03:04:18.986Z,13.20
2022-10-22T03:06:48.604Z,13.10
2022-10-22T03:09:15.465Z,13.10
2022-10-22T03:11:42.311Z,13.10
2022-10-22T03:14:09.556Z,13.00
2022-10-22T03:16:36.414Z,13.00
2022-10-22T03:19:03.456Z,13.00
2022-10-22T03:21:49.373Z,12.90
2022-10-22T03:24:39.070Z,12.90
2022-10-22T03:27:05.904Z,12.80
2022-10-22T03:29:37.276Z,12.80
2022-10-22T03:32:04.307Z,12.80
2022-10-22T03:34:31.141Z,12.80
2022-10-22T03:37:01.181Z,12.70
2022-10-22T03:39:32.221Z,12.70
2022-10-22T03:41:59.412Z,12.60
2022-10-22T03:44:26.961Z,12.70
2022-10-22T03:46:57.405Z,12.60
2022-10-22T03:49:27.004Z,12.60
2022-10-22T03:51:54.048Z,12.70
2022-10-22T03:54:20.886Z,12.70
2022-10-22T03:56:47.823Z,12.70
2022-10-22T03:59:15.068Z,12.60
2022-10-22T04:01:42.204Z,12.60
2022-10-22T04:04:09.246Z,12.60
2022-10-22T04:06:36.016Z,12.50
2022-10-22T04:09:03.081Z,12.50
2022-10-22T04:11:29.986Z,12.50
2022-10-22T04:13:56.864Z,12.50
2022-10-22T04:16:26.215Z,12.50
2022-10-22T04:18:55.509Z,12.50
2022-10-22T04:21:23.030Z,12.50
2022-10-22T04:23:52.857Z,12.40
2022-10-22T04:26:21.131Z,12.40
2022-10-22T04:28:50.221Z,12.40
2022-10-22T04:31:22.582Z,12.30
2022-10-22T04:33:59.473Z,12.30
2022-10-22T04:36:28.298Z,12.30
2022-10-22T04:38:59.603Z,12.30
2022-10-22T04:41:38.951Z,12.20
2022-10-22T04:44:09.897Z,12.20
2022-10-22T04:46:40.390Z,12.20
2022-10-22T04:49:07.319Z,12.10
2022-10-22T04:51:34.216Z,12.10
2022-10-22T04:54:00.991Z,12.10
2022-10-22T04:56:31.355Z,12.10
2022-10-22T04:59:02.115Z,12.00
2022-10-22T05:01:32.102Z,12.00
2022-10-22T05:04:02.061Z,12.00
2022-10-22T05:06:30.743Z,11.90
2022-10-22T05:09:03.588Z,11.90
2022-10-22T05:11:36.741Z,11.90
2022-10-22T05:14:06.203Z,11.80
2022-10-22T05:16:34.338Z,11.80
2022-10-22T05:19:02.672Z,11.80
2022-10-22T05:21:29.807Z,11.80
2022-10-22T05:23:59.972Z,11.80
2022-10-22T05:26:28.719Z,11.80
2022-10-22T05:28:56.014Z,11.80
2022-10-22T05:31:23.190Z,11.70
2022-10-22T05:33:50.059Z,11.70
2022-10-22T05:36:21.189Z,11.70
2022-10-22T05:38:48.308Z,11.70
2022-10-22T05:41:21.764Z,11.70
2022-10-22T05:43:49.229Z,11.70
2022-10-22T05:46:23.208Z,11.60
2022-10-22T05:48:55.991Z,11.60
2022-10-22T05:51:24.621Z,11.60
2022-10-22T05:53:57.550Z,11.60
2022-10-22T05:56:25.249Z,11.60
2022-10-22T05:58:52.471Z,11.50
2022-10-22T06:01:39.585Z,11.50
2022-10-22T06:04:10.481Z,11.50
2022-10-22T06:06:45.331Z,11.40
2022-10-22T06:09:32.757Z,11.50
2022-10-22T06:12:00.238Z,11.50
2022-10-22T06:14:27.831Z,11.50
2022-10-22T06:16:55.651Z,11.50
2022-10-22T06:19:26.714Z,11.50
2022-10-22T06:21:54.034Z,11.50
2022-10-22T06:24:20.954Z,11.40
2022-10-22T06:26:51.594Z,11.50
2022-10-22T06:29:18.663Z,11.40
2022-10-22T06:31:45.713Z,11.40
2022-10-22T06:34:14.672Z,11.40
2022-10-22T06:36:44.377Z,11.40
2022-10-22T06:39:17.517Z,11.40
2022-10-22T06:41:44.988Z,11.40
2022-10-22T06:44:17.738Z,11.40
2022-10-22T06:46:44.708Z,11.50
2022-10-22T06:49:15.929Z,11.50
2022-10-22T06:51:43.003Z,11.50
2022-10-22T06:54:09.880Z,11.50
2022-10-22T06:56:36.782Z,11.40
2022-10-22T06:59:03.999Z,11.40
2022-10-22T07:01:34.840Z,11.40
2022-10-22T07:04:02.508Z,11.40
2022-10-22T07:06:30.459Z,11.50
2022-10-22T07:08:59.587Z,11.50
2022-10-22T07:11:30.429Z,11.50
2022-10-22T07:14:00.136Z,11.50
2022-10-22T07:16:31.160Z,11.50
2022-10-22T07:19:00.550Z,11.60
2022-10-22T07:21:27.559Z,11.50
2022-10-22T07:23:54.901Z,11.60
2022-10-22T07:26:22.411Z,11.60
2022-10-22T07:28:49.422Z,11.60
2022-10-22T07:31:17.912Z,11.60
2022-10-22T07:33:45.390Z,11.70
2022-10-22T07:36:17.812Z,11.80
2022-10-22T07:38:54.233Z,12.30
2022-10-22T07:41:21.155Z,12.80
2022-10-22T07:43:47.929Z,13.10
2022-10-22T07:46:14.814Z,13.50
2022-10-22T07:48:41.698Z,13.80
2022-10-22T07:51:08.986Z,13.90
2022-10-22T07:53:35.917Z,14.20
2022-10-22T07:56:02.795Z,14.40
2022-10-22T07:58:30.138Z,14.50
2022-10-22T08:01:00.756Z,14.60
2022-10-22T08:03:29.169Z,14.50
2022-10-22T08:05:56.530Z,14.40
2022-10-22T08:08:27.051Z,14.30
2022-10-22T08:10:59.852Z,14.10
2022-10-22T08:13:27.582Z,14.00
2022-10-22T08:15:57.355Z,13.80
2022-10-22T08:18:25.259Z,13.70
2022-10-22T08:20:52.418Z,13.60
2022-10-22T08:23:21.205Z,13.60
2022-10-22T08:25:51.107Z,13.50
2022-10-22T08:28:21.151Z,13.30
2022-10-22T08:30:49.244Z,13.20
2022-10-22T08:33:16.269Z,13.20
2022-10-22T08:35:48.225Z,13.30
2022-10-22T08:38:15.112Z,13.40
2022-10-22T08:40:43.150Z,13.40
2022-10-22T08:43:34.625Z,13.40
2022-10-22T08:46:32.120Z,13.60
2022-10-22T08:49:02.203Z,13.70
2022-10-22T08:51:35.089Z,13.90
2022-10-22T08:54:17.259Z,14.20
2022-10-22T08:56:51.031Z,14.40
2022-10-22T08:59:26.859Z,14.60
2022-10-22T09:01:54.674Z,14.60
2022-10-22T09:04:38.391Z,14.60
2022-10-22T09:07:05.203Z,14.60
2022-10-22T09:09:41.201Z,14.80
2022-10-22T09:12:10.756Z,14.80
2022-10-22T09:14:37.701Z,14.80
2022-10-22T09:17:27.143Z,14.80
2022-10-22T09:20:16.438Z,15.00
2022-10-22T09:23:05.537Z,15.30
2022-10-22T09:25:37.048Z,15.40
2022-10-22T09:28:06.137Z,15.50
2022-10-22T09:30:39.131Z,15.50
2022-10-22T09:33:23.942Z,15.50
2022-10-22T09:36:03.308Z,15.40
2022-10-22T09:38:40.519Z,15.40
2022-10-22T09:41:09.150Z,15.50
2022-10-22T09:43:36.311Z,15.60
2022-10-22T09:46:18.855Z,15.60
2022-10-22T09:49:14.777Z,15.80
2022-10-22T09:51:59.660Z,15.90
2022-10-22T09:54:41.994Z,16.00
2022-10-22T09:57:22.315Z,16.10
2022-10-22T09:59:52.603Z,16.20
2022-10-22T10:02:39.159Z,16.20
2022-10-22T10:05:08.409Z,16.30
2022-10-22T10:07:37.122Z,16.40
2022-10-22T10:10:47.345Z,16.60
2022-10-22T10:13:48.205Z,16.70
2022-10-22T10:17:09.942Z,16.90
2022-10-22T10:20:04.343Z,17.10
2022-10-22T10:23:06.481Z,17.20
2022-10-22T10:25:48.661Z,17.50
2022-10-22T10:28:50.672Z,17.70
2022-10-22T10:31:32.416Z,17.70
2022-10-22T10:34:30.354Z,17.60
2022-10-22T10:37:25.759Z,17.80
2022-10-22T10:40:26.255Z,17.80
2022-10-22T10:43:10.855Z,17.90
2022-10-22T10:46:27.463Z,17.80
2022-10-22T10:49:01.092Z,17.80
2022-10-22T10:52:05.933Z,17.80
2022-10-22T10:55:06.708Z,17.70
2022-10-22T10:58:19.473Z,17.60
2022-10-22T11:01:28.898Z,17.60
2022-10-22T11:04:26.515Z,17.60
2022-10-22T11:07:10.757Z,17.80
2022-10-22T11:09:46.363Z,17.80
2022-10-22T11:12:30.720Z,18.00
2022-10-22T11:15:00.294Z,18.10
2022-10-22T11:17:36.795Z,18.20
2022-10-22T11:20:22.499Z,18.30
2022-10-22T11:23:18.323Z,18.10
2022-10-22T11:25:50.716Z,17.80
2022-10-22T11:28:31.770Z,17.70
2022-10-22T11:31:16.195Z,17.60
2022-10-22T11:33:54.613Z,17.50
2022-10-22T11:36:29.375Z,17.50
2022-10-22T11:38:56.838Z,17.50
2022-10-22T11:41:32.628Z,17.50
2022-10-22T11:44:11.294Z,17.50
2022-10-22T11:46:55.822Z,17.40
2022-10-22T11:49:43.786Z,17.30
2022-10-22T11:52:28.082Z,17.30
2022-10-22T11:54:58.385Z,17.30
2022-10-22T11:57:38.055Z,17.30
2022-10-22T12:00:36.121Z,17.40
2022-10-22T12:03:17.111Z,17.40
2022-10-22T12:05:46.260Z,17.40
2022-10-22T12:08:23.522Z,17.50
2022-10-22T12:10:58.459Z,17.50
2022-10-22T12:13:30.224Z,17.50
2022-10-22T12:16:01.972Z,17.70
2022-10-22T12:18:40.792Z,17.80
2022-10-22T12:21:15.809Z,17.90
2022-10-22T12:23:44.948Z,18.20
2022-10-22T12:26:35.976Z,18.40
2022-10-22T12:29:11.464Z,18.60
2022-10-22T12:31:41.815Z,18.80
2022-10-22T12:34:18.722Z,18.80
2022-10-22T12:36:49.021Z,18.80
2022-10-22T12:39:22.842Z,19.00
2022-10-22T12:41:49.794Z,19.10
2022-10-22T12:44:18.203Z,19.00
2022-10-22T12:46:47.516Z,18.90
2022-10-22T12:49:21.894Z,19.00
2022-10-22T12:51:50.057Z,18.80
2022-10-22T12:54:29.533Z,18.80
2022-10-22T12:56:57.340Z,18.70
2022-10-22T12:59:26.178Z,18.70
2022-10-22T13:01:53.925Z,18.70
2022-10-22T13:04:27.073Z,18.60
2022-10-22T13:07:12.225Z,18.70
2022-10-22T13:09:57.174Z,18.70
2022-10-22T13:12:35.438Z,18.80
2022-10-22T13:15:30.137Z,18.70
2022-10-22T13:18:18.669Z,19.10
2022-10-22T13:20:58.973Z,21.70
2022-10-22T13:23:28.473Z,23.50
2022-10-22T13:26:17.787Z,24.80
2022-10-22T13:28:53.410Z,25.40
2022-10-22T13:31:28.811Z,25.90
2022-10-22T13:34:01.403Z,27.00
2022-10-22T13:36:30.439Z,27.50
2022-10-22T13:38:57.850Z,28.10
2022-10-22T13:41:33.099Z,28.50
2022-10-22T13:44:00.026Z,28.70
2022-10-22T13:46:27.596Z,28.90
2022-10-22T13:48:56.469Z,29.30
2022-10-22T13:51:32.183Z,29.40
2022-10-22T13:53:59.098Z,29.10
2022-10-22T13:56:25.969Z,28.50
2022-10-22T13:58:52.852Z,27.70
2022-10-22T14:01:29.317Z,27.80
2022-10-22T14:03:59.251Z,27.20
2022-10-22T14:06:29.909Z,25.40
2022-10-22T14:09:03.672Z,23.70
2022-10-22T14:11:35.199Z,22.70
2022-10-22T14:14:08.795Z,22.10
2022-10-22T14:16:37.664Z,21.60
2022-10-22T14:19:07.590Z,21.20
2022-10-22T14:21:37.874Z,20.70
2022-10-22T14:24:07.200Z,20.40
2022-10-22T14:26:36.377Z,20.50
2022-10-22T14:29:09.187Z,20.70
2022-10-22T14:34:15.678Z,21.00
2022-10-22T14:36:43.920Z,21.60
2022-10-22T14:39:11.682Z,22.90
2022-10-22T14:41:38.766Z,24.60
2022-10-22T14:44:05.677Z,25.30
2022-10-22T14:46:32.699Z,26.50
2022-10-22T14:48:59.583Z,27.30
2022-10-22T14:51:26.416Z,28.40
2022-10-22T14:53:53.238Z,28.40
2022-10-22T14:56:23.215Z,28.20
2022-10-22T14:58:50.915Z,27.60
2022-10-22T15:01:17.842Z,27.80
2022-10-22T15:03:45.217Z,27.80
2022-10-22T15:06:14.455Z,27.40
2022-10-22T15:08:41.418Z,27.30
2022-10-22T15:11:12.390Z,27.20
2022-10-22T15:13:41.299Z,26.90
2022-10-22T15:16:10.800Z,26.50
2022-10-22T15:18:38.277Z,25.50
2022-10-22T15:21:11.933Z,24.40
2022-10-22T15:23:39.571Z,23.90
2022-10-22T15:26:10.825Z,23.70
2022-10-22T15:28:39.395Z,23.20
2022-10-22T15:31:11.221Z,22.70
2022-10-22T15:33:38.164Z,22.30
2022-10-22T15:36:16.557Z,21.80
2022-10-22T15:38:43.325Z,21.60
2022-10-22T15:41:13.381Z,21.20
2022-10-22T15:46:19.477Z,20.40
2022-10-22T15:48:46.773Z,20.00
2022-10-22T15:51:19.425Z,19.70
2022-10-22T15:53:55.938Z,19.40
2022-10-22T15:56:24.112Z,19.10
2022-10-22T15:58:58.182Z,18.90
2022-10-22T16:04:00.003Z,18.50
2022-10-22T16:06:28.764Z,18.30
2022-10-22T16:08:58.550Z,18.10
2022-10-22T16:11:27.115Z,17.90
2022-10-22T16:13:58.334Z,17.70
2022-10-22T16:16:28.308Z,17.60
2022-10-22T16:18:55.368Z,17.40
2022-10-22T16:21:23.912Z,17.30
2022-10-22T16:23:51.098Z,17.10
2022-10-22T16:26:19.724Z,16.90
2022-10-22T16:28:48.201Z,16.70
2022-10-22T16:31:17.964Z,16.50
2022-10-22T16:33:49.228Z,16.30
2022-10-22T16:36:19.878Z,16.20
2022-10-22T16:38:48.468Z,16.10
2022-10-22T16:41:17.725Z,15.90
2022-10-22T16:43:48.565Z,15.90
2022-10-22T16:46:21.173Z,15.70
2022-10-22T16:48:49.365Z,15.70
2022-10-22T16:51:20.115Z,15.50
2022-10-22T16:53:47.308Z,15.50
2022-10-22T16:58:49.799Z,15.30
2022-10-22T17:01:19.285Z,15.20
2022-10-22T17:03:46.797Z,15.00
2022-10-22T17:06:14.417Z,15.00
2022-10-22T17:08:42.253Z,14.90
2022-10-22T17:11:17.631Z,14.80
2022-10-22T17:16:18.986Z,14.70
2022-10-22T17:18:47.589Z,14.60
2022-10-22T17:21:15.978Z,14.50
2022-10-22T17:23:43.137Z,14.40
2022-10-22T17:26:20.831Z,14.30
2022-10-22T17:28:49.024Z,14.30
2022-10-22T17:31:37.231Z,14.20
2022-10-22T17:34:11.288Z,14.10
2022-10-22T17:36:38.281Z,14.10
2022-10-22T17:39:08.026Z,14.00
2022-10-22T17:41:37.252Z,14.00
2022-10-22T17:44:07.063Z,14.00
2022-10-22T17:46:34.050Z,13.90
2022-10-22T17:49:04.438Z,13.90
2022-10-22T17:51:32.169Z,13.90
2022-10-22T17:53:59.530Z,13.90
2022-10-22T17:56:30.169Z,13.80
2022-10-22T17:58:57.327Z,13.80
2022-10-22T18:01:35.075Z,13.70
2022-10-22T18:04:05.803Z,13.70
2022-10-22T18:06:33.916Z,13.60
2022-10-22T18:09:05.991Z,13.60
2022-10-22T18:11:34.367Z,13.50
2022-10-22T18:14:01.178Z,13.50
2022-10-22T18:16:28.183Z,13.50
2022-10-22T18:18:57.674Z,13.50
2022-10-22T18:21:28.973Z,13.40
2022-10-22T18:23:59.405Z,13.40
2022-10-22T18:26:27.094Z,13.40
2022-10-22T18:28:55.298Z,13.30
2022-10-22T18:31:25.242Z,13.30
2022-10-22T18:36:27.200Z,13.30
2022-10-22T18:39:00.758Z,13.30
2022-10-22T18:41:29.178Z,13.30
2022-10-22T18:44:02.425Z,13.30
2022-10-22T18:46:31.322Z,13.30
2022-10-22T18:48:59.182Z,13.20
2022-10-22T18:51:32.818Z,13.20
2022-10-22T18:54:22.231Z,13.10
2022-10-22T18:56:47.322Z,13.10
2022-10-22T18:59:24.836Z,13.10
2022-10-22T19:01:59.289Z,13.10
2022-10-22T19:04:33.071Z,13.10
2022-10-22T19:07:00.093Z,13.10
2022-10-22T19:09:27.066Z,13.10
2022-10-22T19:11:53.968Z,13.00
2022-10-22T19:14:22.102Z,13.00
2022-10-22T19:16:49.763Z,13.00
2022-10-22T19:19:20.643Z,13.00
2022-10-22T19:21:48.846Z,13.00
2022-10-22T19:24:18.188Z,12.90
2022-10-22T19:26:46.072Z,12.90
2022-10-22T19:29:19.790Z,12.90
2022-10-22T19:31:47.838Z,12.80
2022-10-22T19:34:14.861Z,12.90
2022-10-22T19:36:41.739Z,12.80
2022-10-22T19:39:09.000Z,12.80
2022-10-22T19:41:36.274Z,12.80
2022-10-22T19:44:03.222Z,12.60
2022-10-22T19:46:32.604Z,12.70
2022-10-22T19:49:01.993Z,12.70
2022-10-22T19:51:31.135Z,12.80
2022-10-22T19:54:00.831Z,12.80
2022-10-22T19:56:30.235Z,12.70
2022-10-22T19:58:57.835Z,12.70
2022-10-22T20:01:25.603Z,12.60
2022-10-22T20:03:53.579Z,12.60
2022-10-22T20:06:21.928Z,12.50
2022-10-22T20:08:51.079Z,12.50
2022-10-22T20:11:27.690Z,12.50
2022-10-22T20:13:56.547Z,12.50
2022-10-22T20:16:28.507Z,12.50
2022-10-22T20:19:00.295Z,12.50
2022-10-22T20:21:29.866Z,12.50
2022-10-22T20:23:57.618Z,12.50
2022-10-22T20:26:27.961Z,12.50
2022-10-22T20:28:56.787Z,12.40
2022-10-22T20:31:27.005Z,12.40
2022-10-22T20:34:01.088Z,12.30
2022-10-22T20:36:30.169Z,12.30
2022-10-22T20:39:06.202Z,12.20
2022-10-22T20:41:34.294Z,12.20
2022-10-22T20:44:01.531Z,12.20
2022-10-22T20:54:01.987Z,12.10
2022-10-22T20:56:29.259Z,12.30
2022-10-22T20:59:06.998Z,12.20
2022-10-22T21:01:42.810Z,12.10
2022-10-22T21:04:09.951Z,12.10
2022-10-22T21:06:38.946Z,12.10
2022-10-22T21:11:36.890Z,12.00
2022-10-22T21:14:05.835Z,12.00
2022-10-22T21:16:32.769Z,12.00
2022-10-22T21:19:00.299Z,12.00
2022-10-22T21:21:27.587Z,12.00
2022-10-22T21:23:54.408Z,11.90
2022-10-22T21:26:23.447Z,11.90
2022-10-22T21:28:50.467Z,11.90
2022-10-22T21:31:26.142Z,11.80
2022-10-22T21:33:54.225Z,11.80
2022-10-22T21:36:23.686Z,11.70
2022-10-22T21:38:52.069Z,11.70
2022-10-22T21:41:21.971Z,11.70
2022-10-22T21:43:50.031Z,11.80
2022-10-22T21:46:23.484Z,11.80
2022-10-22T21:49:08.672Z,11.80
2022-10-22T21:51:38.257Z,11.80
2022-10-22T21:54:05.951Z,11.70
2022-10-22T21:56:36.612Z,11.70
2022-10-22T21:59:05.704Z,11.70
2022-10-22T22:01:33.193Z,11.60
2022-10-22T22:04:00.450Z,11.60
2022-10-22T22:06:33.018Z,11.60
2022-10-22T22:09:01.902Z,11.50
2022-10-22T22:13:58.459Z,11.40
2022-10-22T22:16:31.873Z,11.40
2022-10-22T22:19:01.863Z,11.40
2022-10-22T22:21:29.678Z,11.30
2022-10-22T22:23:58.058Z,11.30
2022-10-22T22:26:29.751Z,11.30
2022-10-22T22:28:58.736Z,11.30
2022-10-22T22:31:32.476Z,11.30
2022-10-22T22:34:13.629Z,11.20
2022-10-22T22:36:45.329Z,11.20
2022-10-22T22:39:16.143Z,11.20
2022-10-22T22:41:44.085Z,11.10
2022-10-22T22:44:11.507Z,11.00
2022-10-22T22:46:38.874Z,11.00
2022-10-22T22:49:06.643Z,11.10
2022-10-22T22:51:33.663Z,11.00
2022-10-22T22:54:01.921Z,11.00
2022-10-22T22:56:31.792Z,11.00
2022-10-22T22:58:58.768Z,11.10
2022-10-22T23:01:31.049Z,11.00
2022-10-22T23:04:10.907Z,11.00
2022-10-22T23:06:38.266Z,11.00
2022-10-22T23:09:08.550Z,11.00
2022-10-22T23:11:35.872Z,11.00
2022-10-22T23:14:05.122Z,11.00
2022-10-22T23:16:36.595Z,11.00
2022-10-22T23:19:04.890Z,11.00
2022-10-22T23:21:38.805Z,10.90
2022-10-22T23:24:09.607Z,11.00
2022-10-22T23:26:41.447Z,11.00
2022-10-22T23:29:17.438Z,11.00
2022-10-22T23:31:45.339Z,10.90
2022-10-22T23:34:16.720Z,10.90
2022-10-22T23:36:44.317Z,10.90
2022-10-22T23:39:18.837Z,11.00
2022-10-22T23:41:46.384Z,11.00
2022-10-22T23:44:16.191Z,11.00
2022-10-22T23:46:43.008Z,11.00
2022-10-22T23:49:11.215Z,10.90
2022-10-22T23:51:39.885Z,10.90
2022-10-22T23:54:11.474Z,10.90
2022-10-22T23:56:38.416Z,10.90
2022-10-22T23:59:05.554Z,10.90
